createdAt,value
2018-09-09T00:01:46.727Z,12.60
2018-09-09T00:04:16.633Z,9.70
2018-09-09T00:06:46.059Z,6.07
2018-09-09T00:09:20.844Z,12.13
2018-09-09T00:11:50.485Z,8.17
2018-09-09T00:14:18.959Z,8.87
2018-09-09T00:16:47.263Z,11.43
2018-09-09T00:19:15.643Z,6.43
2018-09-09T00:21:43.698Z,8.10
2018-09-09T00:24:12.609Z,8.13
2018-09-09T00:26:41.199Z,6.73
2018-09-09T00:31:49.501Z,5.43
2018-09-09T00:34:20.127Z,6.53
2018-09-09T00:36:54.011Z,4.43
2018-09-09T00:39:22.982Z,4.13
2018-09-09T00:41:51.583Z,4.73
2018-09-09T00:44:20.093Z,7.27
2018-09-09T00:46:48.229Z,7.87
2018-09-09T00:49:21.812Z,8.63
2018-09-09T00:51:55.535Z,5.77
2018-09-09T00:54:26.491Z,4.40
2018-09-09T00:56:57.475Z,7.63
2018-09-09T00:59:25.569Z,7.53
2018-09-09T01:01:55.805Z,7.20
2018-09-09T01:04:23.903Z,6.20
2018-09-09T01:06:52.283Z,9.10
2018-09-09T01:09:26.607Z,6.17
2018-09-09T01:11:55.503Z,8.33
2018-09-09T01:14:23.937Z,9.67
2018-09-09T01:16:51.964Z,11.07
2018-09-09T01:19:20.769Z,6.43
2018-09-09T01:21:49.447Z,5.93
2018-09-09T01:24:17.509Z,6.70
2018-09-09T01:26:47.829Z,7.23
2018-09-09T01:29:19.393Z,7.97
2018-09-09T01:31:47.672Z,5.57
2018-09-09T01:34:15.936Z,8.13
2018-09-09T01:36:44.197Z,4.33
2018-09-09T01:39:12.833Z,3.40
2018-09-09T01:41:41.505Z,3.33
2018-09-09T01:44:09.571Z,6.10
2018-09-09T01:46:37.682Z,5.50
2018-09-09T01:49:05.874Z,5.27
2018-09-09T01:51:34.573Z,5.57
2018-09-09T01:54:02.782Z,6.20
2018-09-09T01:56:36.123Z,3.23
2018-09-09T01:59:05.193Z,4.67
2018-09-09T02:01:33.457Z,6.73
2018-09-09T02:04:02.789Z,3.13
2018-09-09T02:06:30.779Z,3.53
2018-09-09T02:08:58.843Z,4.47
2018-09-09T02:11:27.421Z,5.67
2018-09-09T02:13:55.407Z,4.03
2018-09-09T02:16:24.061Z,4.27
2018-09-09T02:18:52.707Z,4.50
2018-09-09T02:21:21.267Z,2.90
2018-09-09T02:23:49.567Z,5.50
2018-09-09T02:26:17.616Z,3.93
2018-09-09T02:28:45.616Z,2.93
2018-09-09T02:31:13.796Z,2.87
2018-09-09T02:33:41.820Z,4.33
2018-09-09T02:36:10.472Z,3.90
2018-09-09T02:38:38.600Z,3.00
2018-09-09T02:41:06.980Z,7.10
2018-09-09T02:43:37.059Z,3.60
2018-09-09T02:46:05.768Z,4.37
2018-09-09T02:48:34.251Z,4.40
2018-09-09T02:51:02.606Z,4.27
2018-09-09T02:53:30.880Z,2.93
2018-09-09T02:55:59.881Z,4.80
2018-09-09T02:58:27.881Z,4.33
2018-09-09T03:00:56.718Z,5.83
2018-09-09T03:03:26.684Z,5.60
2018-09-09T03:05:54.842Z,4.67
2018-09-09T03:08:23.019Z,5.33
2018-09-09T03:10:57.031Z,5.07
2018-09-09T03:13:25.045Z,6.93
2018-09-09T03:15:54.401Z,7.07
2018-09-09T03:18:22.463Z,4.70
2018-09-09T03:20:50.807Z,6.73
2018-09-09T03:23:18.767Z,5.70
2018-09-09T03:25:46.805Z,3.87
2018-09-09T03:28:14.877Z,3.90
2018-09-09T03:30:43.684Z,5.80
2018-09-09T03:33:11.708Z,3.30
2018-09-09T03:35:41.018Z,4.00
2018-09-09T03:38:09.014Z,4.43
2018-09-09T03:40:37.224Z,5.60
2018-09-09T03:43:05.743Z,4.80
2018-09-09T03:45:33.738Z,5.13
2018-09-09T03:48:01.816Z,7.20
2018-09-09T03:50:30.522Z,6.93
2018-09-09T03:52:58.850Z,10.17
2018-09-09T03:55:32.218Z,3.40
2018-09-09T03:58:02.238Z,5.80
2018-09-09T04:00:30.208Z,6.50
2018-09-09T04:02:58.180Z,5.93
2018-09-09T04:05:26.926Z,7.23
2018-09-09T04:07:55.778Z,7.37
2018-09-09T04:10:24.068Z,6.73
2018-09-09T04:12:52.674Z,6.40
2018-09-09T04:15:21.142Z,6.13
2018-09-09T04:17:49.132Z,5.53
2018-09-09T04:20:17.486Z,5.43
2018-09-09T04:22:46.572Z,5.47
2018-09-09T04:25:15.634Z,5.03
2018-09-09T04:27:44.240Z,4.73
2018-09-09T04:30:12.595Z,4.97
2018-09-09T04:32:44.682Z,6.07
2018-09-09T04:35:13.666Z,5.97
2018-09-09T04:37:41.977Z,6.37
2018-09-09T04:40:15.957Z,5.73
2018-09-09T04:42:49.802Z,6.03
2018-09-09T04:48:00.403Z,5.20
2018-09-09T04:50:31.855Z,5.77
2018-09-09T04:53:00.502Z,5.30
2018-09-09T04:55:29.517Z,5.07
2018-09-09T04:58:00.081Z,6.30
2018-09-09T05:00:34.659Z,6.17
2018-09-09T05:03:02.636Z,7.53
2018-09-09T05:05:49.839Z,6.10
2018-09-09T05:08:21.297Z,5.47
2018-09-09T05:10:51.853Z,5.00
2018-09-09T05:13:21.154Z,5.27
2018-09-09T05:15:50.163Z,6.30
2018-09-09T05:18:18.472Z,4.80
2018-09-09T05:20:48.791Z,5.40
2018-09-09T05:23:17.355Z,4.27
2018-09-09T05:25:54.904Z,8.17
2018-09-09T05:28:34.505Z,5.17
2018-09-09T05:31:03.323Z,5.43
2018-09-09T05:33:31.873Z,5.73
2018-09-09T05:36:04.958Z,7.57
2018-09-09T05:38:51.557Z,5.77
2018-09-09T05:41:23.768Z,5.90
2018-09-09T05:43:53.595Z,7.67
2018-09-09T05:52:19.459Z,5.60
2018-09-09T05:54:53.518Z,3.13
2018-09-09T05:57:22.351Z,5.70
2018-09-09T05:59:51.245Z,5.40
2018-09-09T06:02:20.781Z,5.30
2018-09-09T06:04:48.991Z,3.87
2018-09-09T06:07:17.492Z,4.63
2018-09-09T06:09:49.855Z,8.27
2018-09-09T06:12:18.575Z,8.77
2018-09-09T06:14:52.907Z,3.47
2018-09-09T06:17:21.531Z,3.60
2018-09-09T06:19:50.081Z,6.23
2018-09-09T06:22:18.158Z,3.50
2018-09-09T06:24:46.557Z,7.03
2018-09-09T06:27:24.103Z,4.43
2018-09-09T06:32:46.200Z,5.90
2018-09-09T06:35:27.227Z,4.43
2018-09-09T06:40:49.379Z,4.50
2018-09-09T06:43:28.724Z,4.40
2018-09-09T06:46:15.535Z,4.50
2018-09-09T06:48:43.651Z,4.63
2018-09-09T06:51:29.870Z,3.70
2018-09-09T06:54:03.536Z,3.93
2018-09-09T06:56:36.505Z,5.00
2018-09-09T06:59:10.923Z,3.73
2018-09-09T07:04:30.910Z,3.90
2018-09-09T07:07:00.614Z,3.20
2018-09-09T07:09:33.661Z,3.47
2018-09-09T07:12:11.589Z,4.53
2018-09-09T07:14:40.972Z,4.57
2018-09-09T07:17:10.109Z,5.20
2018-09-09T07:19:41.132Z,5.47
2018-09-09T07:22:11.493Z,2.93
2018-09-09T07:24:47.782Z,6.53
2018-09-09T07:27:17.033Z,4.97
2018-09-09T07:32:28.864Z,6.70
2018-09-09T07:35:00.576Z,5.33
2018-09-09T07:37:37.615Z,3.70
2018-09-09T07:40:17.274Z,5.07
2018-09-09T07:42:45.450Z,5.13
2018-09-09T07:45:12.262Z,6.03
2018-09-09T07:47:39.992Z,3.83
2018-09-09T07:50:07.064Z,4.83
2018-09-09T07:52:40.466Z,4.43
2018-09-09T07:55:22.337Z,5.13
2018-09-09T07:57:53.302Z,4.87
2018-09-09T08:00:28.390Z,5.10
2018-09-09T08:02:57.704Z,7.47
2018-09-09T08:05:26.136Z,4.37
2018-09-09T08:07:55.517Z,3.37
2018-09-09T08:10:22.358Z,10.17
2018-09-09T08:12:51.144Z,6.57
2018-09-09T08:15:30.638Z,5.60
2018-09-09T08:20:38.085Z,4.20
2018-09-09T08:23:06.521Z,3.92
2018-09-09T08:25:41.283Z,3.58
2018-09-09T08:28:15.154Z,3.08
2018-09-09T08:30:43.891Z,3.40
2018-09-09T08:33:16.382Z,2.55
2018-09-09T08:35:52.475Z,4.20
2018-09-09T08:38:24.319Z,2.47
2018-09-09T08:40:51.711Z,2.45
2018-09-09T08:43:19.215Z,6.00
2018-09-09T08:45:46.753Z,2.33
2018-09-09T08:48:13.731Z,3.77
2018-09-09T08:50:41.593Z,4.23
2018-09-09T08:53:08.517Z,3.05
2018-09-09T08:55:35.425Z,1.80
2018-09-09T08:58:02.433Z,4.55
2018-09-09T09:00:29.427Z,2.33
2018-09-09T09:02:56.623Z,1.65
2018-09-09T09:05:23.463Z,1.98
2018-09-09T09:07:51.168Z,1.95
2018-09-09T09:10:18.599Z,2.70
2018-09-09T09:12:48.923Z,2.20
2018-09-09T09:18:11.562Z,2.37
2018-09-09T09:20:39.133Z,2.65
2018-09-09T09:23:06.546Z,2.42
2018-09-09T09:25:33.916Z,3.12
2018-09-09T09:28:03.519Z,2.87
2018-09-09T09:30:31.515Z,7.50
2018-09-09T09:32:58.678Z,3.00
2018-09-09T09:35:33.738Z,2.25
2018-09-09T09:38:03.371Z,2.40
2018-09-09T09:40:30.769Z,2.30
2018-09-09T09:43:03.011Z,2.52
2018-09-09T09:45:36.035Z,1.85
2018-09-09T09:48:05.075Z,4.90
2018-09-09T09:50:32.593Z,2.90
2018-09-09T09:53:00.992Z,5.78
2018-09-09T09:55:29.469Z,2.90
2018-09-09T09:57:56.774Z,5.08
2018-09-09T10:00:30.052Z,1.30
2018-09-09T10:02:57.551Z,2.87
2018-09-09T10:05:25.156Z,1.85
2018-09-09T10:07:52.389Z,1.85
2018-09-09T10:10:22.372Z,2.83
2018-09-09T10:12:49.398Z,2.75
2018-09-09T10:15:16.320Z,1.45
2018-09-09T10:17:44.527Z,1.75
2018-09-09T10:20:12.810Z,2.08
2018-09-09T10:22:39.715Z,1.60
2018-09-09T10:25:16.182Z,1.40
2018-09-09T10:27:43.226Z,1.65
2018-09-09T10:30:15.862Z,1.30
2018-09-09T10:32:49.594Z,5.00
2018-09-09T10:35:17.251Z,1.75
2018-09-09T10:37:44.663Z,1.22
2018-09-09T10:40:16.505Z,2.05
2018-09-09T10:42:51.036Z,2.27
2018-09-09T10:45:19.138Z,0.93
2018-09-09T10:47:46.556Z,1.25
2018-09-09T10:50:13.568Z,2.33
2018-09-09T10:52:46.520Z,2.05
2018-09-09T10:55:13.972Z,1.15
2018-09-09T10:57:47.602Z,1.42
2018-09-09T11:00:22.073Z,1.67
2018-09-09T11:02:55.260Z,1.45
2018-09-09T11:05:23.131Z,2.30
2018-09-09T11:07:51.431Z,1.40
2018-09-09T11:10:18.773Z,0.90
2018-09-09T11:12:47.493Z,2.05
2018-09-09T11:15:15.476Z,2.42
2018-09-09T11:17:42.454Z,1.70
2018-09-09T11:20:09.620Z,2.00
2018-09-09T11:22:37.181Z,2.25
2018-09-09T11:25:04.518Z,2.40
2018-09-09T11:27:38.048Z,1.52
2018-09-09T11:30:15.747Z,1.30
2018-09-09T11:32:45.078Z,1.92
2018-09-09T11:35:12.028Z,1.50
2018-09-09T11:37:43.910Z,2.52
2018-09-09T11:40:10.928Z,1.45
2018-09-09T11:42:38.848Z,2.05
2018-09-09T11:45:21.665Z,1.47
2018-09-09T11:47:50.578Z,1.42
2018-09-09T11:50:21.279Z,0.93
2018-09-09T11:52:51.071Z,2.45
2018-09-09T11:55:21.614Z,2.17
2018-09-09T11:57:53.112Z,0.72
2018-09-09T12:00:23.623Z,1.10
2018-09-09T12:02:54.163Z,2.15
2018-09-09T12:05:24.647Z,2.85
2018-09-09T12:07:55.278Z,1.20
2018-09-09T12:10:26.828Z,3.08
2018-09-09T12:12:57.444Z,2.27
2018-09-09T12:15:27.960Z,1.52
2018-09-09T12:17:58.580Z,1.32
2018-09-09T12:20:28.942Z,2.20
2018-09-09T12:23:00.594Z,1.67
2018-09-09T12:25:33.096Z,2.08
2018-09-09T12:28:11.901Z,3.45
2018-09-09T12:30:42.555Z,1.95
2018-09-09T12:33:12.953Z,1.82
2018-09-09T12:35:43.312Z,0.70
2018-09-09T12:38:14.534Z,1.10
2018-09-09T12:40:45.057Z,1.00
2018-09-09T12:43:20.747Z,0.80
2018-09-09T12:45:56.627Z,0.75
2018-09-09T12:48:32.135Z,1.72
2018-09-09T12:51:11.240Z,1.62
2018-09-09T12:53:41.977Z,1.22
2018-09-09T12:56:12.243Z,1.32
2018-09-09T12:58:42.551Z,3.08
2018-09-09T13:01:12.966Z,3.10
2018-09-09T13:03:43.679Z,0.90
2018-09-09T13:06:14.077Z,1.27
2018-09-09T13:08:44.438Z,2.72
2018-09-09T13:11:15.037Z,0.95
2018-09-09T13:13:53.053Z,2.00
2018-09-09T13:16:22.953Z,1.15
2018-09-09T13:18:53.467Z,2.67
2018-09-09T13:21:24.047Z,7.75
2018-09-09T13:23:54.196Z,0.95
2018-09-09T13:26:24.783Z,1.20
2018-09-09T13:28:55.145Z,1.87
2018-09-09T13:31:25.471Z,1.05
2018-09-09T13:33:55.255Z,1.15
2018-09-09T13:36:25.725Z,1.12
2018-09-09T13:38:57.162Z,1.40
2018-09-09T13:41:27.885Z,1.55
2018-09-09T13:43:54.695Z,1.17
2018-09-09T13:46:25.205Z,1.20
2018-09-09T13:48:55.007Z,1.40
2018-09-09T13:51:27.777Z,0.95
2018-09-09T13:53:58.196Z,1.85
2018-09-09T13:56:28.572Z,0.95
2018-09-09T13:58:59.396Z,2.50
2018-09-09T14:01:29.468Z,1.17
2018-09-09T14:04:00.029Z,2.12
2018-09-09T14:06:30.388Z,1.17
2018-09-09T14:09:00.718Z,1.82
2018-09-09T14:11:30.443Z,1.95
2018-09-09T14:16:35.106Z,1.50
2018-09-09T14:19:05.607Z,1.20
2018-09-09T14:21:36.095Z,1.52
2018-09-09T14:24:12.814Z,2.15
2018-09-09T14:26:42.682Z,0.90
2018-09-09T14:29:13.862Z,2.33
2018-09-09T14:31:43.724Z,1.85
2018-09-09T14:34:14.141Z,2.60
2018-09-09T14:36:40.867Z,2.52
2018-09-09T14:39:10.911Z,0.75
2018-09-09T14:41:40.741Z,1.07
2018-09-09T14:44:11.165Z,1.52
2018-09-09T14:46:41.681Z,1.32
2018-09-09T14:49:12.161Z,1.60
2018-09-09T14:51:43.647Z,0.80
2018-09-09T14:54:14.311Z,1.25
2018-09-09T14:56:44.937Z,7.25
2018-09-09T14:59:15.577Z,1.40
2018-09-09T15:01:42.279Z,1.07
2018-09-09T15:04:12.436Z,0.98
2018-09-09T15:06:42.976Z,2.58
2018-09-09T15:09:13.351Z,2.63
2018-09-09T15:11:43.741Z,1.00
2018-09-09T15:14:13.685Z,2.20
2018-09-09T15:16:44.286Z,1.05
2018-09-09T15:19:14.749Z,1.22
2018-09-09T15:21:44.551Z,3.12
2018-09-09T15:24:15.133Z,1.05
2018-09-09T15:26:45.475Z,0.93
2018-09-09T15:29:16.093Z,1.82
2018-09-09T15:31:46.650Z,2.15
2018-09-09T15:34:17.158Z,0.93
2018-09-09T15:36:47.605Z,1.07
2018-09-09T15:39:17.924Z,1.10
2018-09-09T15:41:49.048Z,1.05
2018-09-09T15:44:20.534Z,1.65
2018-09-09T15:46:51.279Z,1.15
2018-09-09T15:49:21.866Z,1.15
2018-09-09T15:51:51.923Z,5.55
2018-09-09T15:54:22.408Z,1.10
2018-09-09T15:56:52.216Z,1.12
2018-09-09T15:59:23.056Z,0.90
2018-09-09T16:01:53.187Z,1.03
2018-09-09T16:04:23.613Z,0.70
2018-09-09T16:06:54.236Z,1.17
2018-09-09T16:09:24.493Z,2.98
2018-09-09T16:11:55.201Z,1.03
2018-09-09T16:14:25.576Z,2.13
2018-09-09T16:16:56.042Z,0.67
2018-09-09T16:19:26.832Z,1.43
2018-09-09T16:21:56.871Z,1.43
2018-09-09T16:24:27.241Z,4.13
2018-09-09T16:26:57.918Z,1.07
2018-09-09T16:29:28.512Z,1.47
2018-09-09T16:31:58.943Z,1.13
2018-09-09T16:34:29.384Z,0.93
2018-09-09T16:36:59.804Z,4.27
2018-09-09T16:39:29.560Z,0.80
2018-09-09T16:42:00.828Z,4.17
2018-09-09T16:44:32.090Z,3.10
2018-09-09T16:49:45.040Z,4.27
2018-09-09T16:52:15.122Z,3.30
2018-09-09T16:54:45.582Z,1.13
2018-09-09T16:57:16.042Z,1.53
2018-09-09T16:59:46.538Z,0.60
2018-09-09T17:02:17.016Z,1.33
2018-09-09T17:04:47.327Z,3.20
2018-09-09T17:07:17.894Z,3.27
2018-09-09T17:09:47.596Z,5.63
2018-09-09T17:12:17.311Z,9.00
2018-09-09T17:14:47.838Z,7.37
2018-09-09T17:17:18.846Z,3.80
2018-09-09T17:19:48.869Z,2.50
2018-09-09T17:22:23.214Z,1.00
2018-09-09T17:24:55.055Z,1.77
2018-09-09T17:27:25.244Z,3.73
2018-09-09T17:29:55.445Z,3.77
2018-09-09T17:32:22.151Z,2.90
2018-09-09T17:34:52.675Z,2.20
2018-09-09T17:37:23.391Z,1.30
2018-09-09T17:39:53.804Z,1.40
2018-09-09T17:42:25.440Z,1.77
2018-09-09T17:44:58.777Z,1.03
2018-09-09T17:47:28.495Z,1.70
2018-09-09T17:49:59.128Z,1.50
2018-09-09T17:52:29.640Z,1.53
2018-09-09T17:54:59.698Z,1.40
2018-09-09T17:57:30.020Z,3.27
2018-09-09T18:00:01.523Z,1.33
2018-09-09T18:02:32.191Z,1.23
2018-09-09T18:05:02.660Z,1.30
2018-09-09T18:07:33.031Z,1.87
2018-09-09T18:10:08.308Z,2.30
2018-09-09T18:12:42.828Z,4.80
2018-09-09T18:15:12.869Z,5.20
2018-09-09T18:17:43.522Z,2.13
2018-09-09T18:20:14.279Z,3.27
2018-09-09T18:22:45.289Z,1.40
2018-09-09T18:25:15.932Z,2.30
2018-09-09T18:27:46.145Z,2.97
2018-09-09T18:30:16.755Z,1.77
2018-09-09T18:32:48.109Z,2.47
2018-09-09T18:35:18.405Z,3.33
2018-09-09T18:37:48.541Z,3.50
2018-09-09T18:40:21.915Z,3.67
2018-09-09T18:42:53.133Z,2.80
2018-09-09T18:45:23.511Z,2.50
2018-09-09T18:47:53.563Z,4.33
2018-09-09T18:50:24.197Z,2.63
2018-09-09T18:52:54.723Z,5.00
2018-09-09T18:55:24.884Z,4.37
2018-09-09T18:57:55.502Z,9.30
2018-09-09T19:00:25.804Z,3.17
2018-09-09T19:02:55.708Z,3.23
2018-09-09T19:05:26.198Z,3.07
2018-09-09T19:07:56.170Z,3.77
2018-09-09T19:10:26.052Z,23.83
2018-09-09T19:12:56.441Z,7.70
2018-09-09T19:15:26.756Z,5.53
2018-09-09T19:17:57.412Z,4.37
2018-09-09T19:20:28.578Z,5.93
2018-09-09T19:22:59.330Z,3.40
2018-09-09T19:25:29.170Z,2.20
2018-09-09T19:28:00.866Z,3.10
2018-09-09T19:30:31.204Z,3.27
2018-09-09T19:33:10.792Z,1.60
2018-09-09T19:35:42.015Z,2.23
2018-09-09T19:38:12.043Z,1.83
2018-09-09T19:40:44.904Z,3.97
2018-09-09T19:43:15.874Z,2.27
2018-09-09T19:45:45.989Z,1.43
2018-09-09T19:48:16.666Z,2.87
2018-09-09T19:50:46.484Z,3.60
2018-09-09T19:53:17.843Z,4.47
2018-09-09T19:55:50.638Z,4.47
2018-09-09T19:58:20.415Z,2.13
2018-09-09T20:00:50.532Z,10.60
2018-09-09T20:03:20.749Z,4.03
2018-09-09T20:05:51.168Z,4.03
2018-09-09T20:08:21.516Z,5.10
2018-09-09T20:10:52.167Z,3.73
2018-09-09T20:13:22.836Z,2.70
2018-09-09T20:15:53.373Z,3.00
2018-09-09T20:18:23.724Z,3.70
2018-09-09T20:20:53.541Z,3.57
2018-09-09T20:23:23.914Z,3.17
2018-09-09T20:25:53.744Z,3.40
2018-09-09T20:28:24.373Z,5.63
2018-09-09T20:30:54.784Z,6.40
2018-09-09T20:33:29.388Z,6.57
2018-09-09T20:36:02.390Z,6.17
2018-09-09T20:38:32.346Z,4.93
2018-09-09T20:41:09.308Z,5.80
2018-09-09T20:43:36.022Z,46.30
2018-09-09T20:46:08.392Z,30.67
2018-09-09T20:48:38.504Z,151.37
